To NAV CANADA Home Page Login to a new session Search on AWWS site Feedback and Comments Disclaimer Vers la page française équivalente Tips FAQ What's new on the site To the Forecasts and Observations / NOTAM section To "File a Flight Plan" website Publications and other links Update of the User's profile FIC Telephone Numbers My Weather Data Folder Route Weather Data Regional Weather Data Local Weather Data To the Forecasts and Observations / NOTAM section
Request Generated 03/05/2015 at 06:27:31 UTC . Weather information available at that time is displayed.

METAR/TAF

HAVRE ST-PIERRE/QC    (show WxCam)

METAR CYGV 050600Z AUTO 27018KT 9SM CLR M10/M12 A2937 RMK SLP949=
METAR CYGV 050500Z AUTO 27012KT 9SM SCT043 M10/M10 A2936 RMK SLP947=
SPECI CYGV 050437Z AUTO 27013KT 9SM FEW027 SCT035 BKN046 OVC055
M09/M09 A2936 RMK SLP945=
SPECI CYGV 050411Z AUTO 26008KT 9SM -SN SCT036 M10/M11 A2935 RMK
SLP943=
METAR CYGV 050400Z AUTO 27008KT 9SM CLR M11/M12 A2935 RMK SLP942=

TAF AMD CYGV 050248Z 0502/0514 26012KT P6SM SCT025 TEMPO 0502/0505
5SM -SN BKN020
FM051300 28015G25KT P6SM FEW030
RMK FCST BASED ON AUTO OBS. AUTO OBS REPG NON-REPRESENTATIVE VIS.
NXT FCST BY 050800Z=
Your time UTC time
Weather data provided by Environment Canada and NAV CANADA